^^
Meteo Knjazevac Station Historical Data
Daily Summary for May 19, 2022 Units:  Both    English   Metric
Daily Weekly Monthly Yearly Custom
  High: Low: Average:
Temperature: 44.6 °F /  7 °C 36.5 °F /  2.5 °C 40.2 °F /  4.6 °C
Dew Point: 41.3 °F /  5.2 °C 34.1 °F /  1.2 °C 37.2 °F /  2.9 °C
Humidity: 95% 86% 89%
Wind Speed: 3mph /  4.8km/h - 1.1mph /  1.8km/h
Wind Gust: 5mph /  8km/h - -
Wind- - West
Pressure: 30.40 in /  1029.3 hPa 30.35 in /  1027.7 hPa -
Precipitation: 0.00 in /  0 mm    
Historical Graphs
 
 
Tabular Data for May 19, 2022
Time Temperature Dew Point Pressure Wind Wind Speed Wind Gust Humidity Rainfall Rate (Hourly) solar Conditions
00:00 44.6 °F /  7 °C 41.3 °F /  5.2 °C 30.35in /  1027.7hPa Calm   2mph /  3.2km/h 88% 0.00in /  0mm 0 W/m2
00:10 44.6 °F /  7 °C 40.7 °F /  4.8 °C 30.35in /  1027.7hPa NNW 1mph /  1.6km/h 2mph /  3.2km/h 86% 0.00in /  0mm 0 W/m2
00:20 44.1 °F /  6.7 °C 40.1 °F /  4.5 °C 30.35in /  1027.7hPa Calm   2mph /  3.2km/h 86% 0.00in /  0mm 0 W/m2
00:30 43.7 °F /  6.5 °C 39.8 °F /  4.3 °C 30.35in /  1027.7hPa Calm   2mph /  3.2km/h 86% 0.00in /  0mm 0 W/m2
00:40 43.2 °F /  6.2 °C 39.3 °F /  4.1 °C 30.35in /  1027.7hPa West 1mph /  1.6km/h 2mph /  3.2km/h 86% 0.00in /  0mm 0 W/m2
00:50 42.8 °F /  6 °C 38.9 °F /  3.8 °C 30.35in /  1027.7hPa Calm   2mph /  3.2km/h 86% 0.00in /  0mm 0 W/m2
01:00 42.4 °F /  5.8 °C 38.5 °F /  3.6 °C 30.35in /  1027.7hPa WNW 1mph /  1.6km/h 2mph /  3.2km/h 86% 0.00in /  0mm 0 W/m2
01:10 42.1 °F /  5.6 °C 38.2 °F /  3.4 °C 30.35in /  1027.7hPa West 1mph /  1.6km/h 2mph /  3.2km/h 86% 0.00in /  0mm 0 W/m2
01:20 41.7 °F /  5.4 °C 38.4 °F /  3.6 °C 30.36in /  1028hPa West 1mph /  1.6km/h 3mph /  4.8km/h 88% 0.00in /  0mm 0 W/m2
01:30 41.5 °F /  5.3 °C 38.2 °F /  3.4 °C 30.36in /  1028hPa Calm   2mph /  3.2km/h 88% 0.00in /  0mm 0 W/m2
01:40 41.2 °F /  5.1 °C 37.9 °F /  3.3 °C 30.36in /  1028hPa Calm   2mph /  3.2km/h 88% 0.00in /  0mm 0 W/m2
03:50 40.8 °F /  4.9 °C 37.5 °F /  3.1 °C 30.36in /  1028hPa Calm   2mph /  3.2km/h 88% 0.00in /  0mm 0 W/m2
04:00 40.3 °F /  4.6 °C 37 °F /  2.8 °C 30.36in /  1028hPa West 1mph /  1.6km/h 3mph /  4.8km/h 88% 0.00in /  0mm 0 W/m2
04:10 40.1 °F /  4.5 °C 36.8 °F /  2.7 °C 30.36in /  1028hPa West 1mph /  1.6km/h 2mph /  3.2km/h 88% 0.00in /  0mm 0 W/m2
04:20 39.7 °F /  4.3 °C 36.8 °F /  2.7 °C 30.37in /  1028.3hPa West 1mph /  1.6km/h 3mph /  4.8km/h 89% 0.00in /  0mm 0 W/m2
04:30 39.6 °F /  4.2 °C 36.6 °F /  2.6 °C 30.37in /  1028.3hPa WSW 2mph /  3.2km/h 3mph /  4.8km/h 89% 0.00in /  0mm 0 W/m2
04:40 39.4 °F /  4.1 °C 36.7 °F /  2.6 °C 30.37in /  1028.3hPa West 3mph /  4.8km/h 4mph /  6.4km/h 90% 0.00in /  0mm 0 W/m2
04:50 39.4 °F /  4.1 °C 37 °F /  2.8 °C 30.37in /  1028.3hPa West 2mph /  3.2km/h 5mph /  8km/h 91% 0.00in /  0mm 0 W/m2
05:00 39.4 °F /  4.1 °C 36.7 °F /  2.6 °C 30.37in /  1028.3hPa West 1mph /  1.6km/h 4mph /  6.4km/h 90% 0.00in /  0mm 0 W/m2
05:10 39.2 °F /  4 °C 36.5 °F /  2.5 °C 30.37in /  1028.3hPa Calm   3mph /  4.8km/h 90% 0.00in /  0mm 0 W/m2
05:20 38 °F /  3.3 °C 35.5 °F /  1.9 °C 30.39in /  1029hPa WNW 1.4mph /  2.3km/h 5mph /  8km/h 90.3% 0.00in /  0mm 7 W/m2
05:30 37 °F /  2.8 °C 34.7 °F /  1.5 °C 30.39in /  1029hPa WNW 2mph /  3.2km/h 4mph /  6.4km/h 91% 0.00in /  0mm 19 W/m2
05:40 36.9 °F /  2.7 °C 34.5 °F /  1.4 °C 30.39in /  1029hPa West 1mph /  1.6km/h 3mph /  4.8km/h 91% 0.00in /  0mm 28 W/m2
05:50 36.7 °F /  2.6 °C 34.3 °F /  1.3 °C 30.39in /  1029hPa West 3mph /  4.8km/h 5mph /  8km/h 91% 0.00in /  0mm 45 W/m2
06:00 36.5 °F /  2.5 °C 34.1 °F /  1.2 °C 30.40in /  1029.3hPa West 2mph /  3.2km/h 5mph /  8km/h 91% 0.00in /  0mm 71 W/m2
06:10 36.7 °F /  2.6 °C 34.8 °F /  1.6 °C 30.40in /  1029.3hPa West 1mph /  1.6km/h 5mph /  8km/h 93% 0.00in /  0mm 92 W/m2
06:20 37.1 °F /  2.8 °C 35.5 °F /  1.9 °C 30.40in /  1029.3hPa WNW 2mph /  3.2km/h 3mph /  4.8km/h 94% 0.00in /  0mm 115 W/m2
06:30 37.8 °F /  3.2 °C 36.5 °F /  2.5 °C 30.40in /  1029.3hPa WNW 2mph /  3.2km/h 4mph /  6.4km/h 95% 0.00in /  0mm 141 W/m2
Knjazevac, Serbia
Compliments of Weather Underground - 2 mb